Kirovo-Chepetsk, Russia
Current Conditions -  °F | °C
As of 6:30 AM on Friday 26 Dec 2014 (Local Time) from UWKS Reporting Station
Snow Showers Snow Showers  
Wind Chill: -5°   Ceiling: 1300
Heat Index: 10°   Visibility: 6mi
Dew Point:   Wind: 13mph
Humidity: 85%   Direction: 350°N
Pressure: 29.41"   Gusts: NA
Location:  58.55°N, 50.04°E
Report Text: UWKS 260230Z 35006MPS 9000 -SHSN OVC013CB M12/M14 Q0996 NOSIGRMK QFE732 06890336
Loading
Personal Weather Stations






























Interactive Weather Map New forecast layout! Learn more

10-Day Weather Forecast

Advertisements
Track Severe Weather on mobile